Time;durP1;ratioP1;P1;durP2;ratioP2;P2;SDS_P1;SDS_P2;PMS_P1;PMS_P2;Temp;Humidity;BMP_temperature;BMP_pressure;BME280_temperature;BME280_humidity;BME280_pressure;Samples;Min_cycle;Max_cycle;Signal;HPM_P1;HPM_P2
2022/07/09 00:02:24;;;;;;;4.20;4.00;;;;;;;21.50;100.00;99123.50;5124694;27;20199;-69
2022/07/09 00:04:51;;;;;;;4.90;4.60;;;;;;;21.39;100.00;99110.47;5118103;27;20697;-71
2022/07/09 00:07:18;;;;;;;4.57;4.37;;;;;;;21.34;100.00;99099.59;5112944;28;20194;-71
2022/07/09 00:09:44;;;;;;;5.53;4.93;;;;;;;21.25;100.00;99087.28;5113020;28;20217;-72
2022/07/09 00:12:11;;;;;;;4.10;3.90;;;;;;;21.23;100.00;99086.56;5119863;27;20208;-72
2022/07/09 00:14:40;;;;;;;4.40;4.00;;;;;;;21.25;100.00;99097.72;5115323;27;20220;-72
2022/07/09 00:17:07;;;;;;;3.93;3.73;;;;;;;21.25;100.00;99087.28;5117639;27;20209;-72
2022/07/09 00:19:33;;;;;;;3.77;3.67;;;;;;;21.20;100.00;99094.63;5130937;27;20193;-72
2022/07/09 00:22:00;;;;;;;3.97;3.80;;;;;;;21.18;100.00;99086.09;5130533;27;20228;-72
2022/07/09 00:24:27;;;;;;;4.20;3.87;;;;;;;21.21;100.00;99091.06;5112966;28;20189;-71
2022/07/09 00:26:54;;;;;;;4.03;3.93;;;;;;;21.19;100.00;99077.34;5113067;27;20566;-71
2022/07/09 00:29:21;;;;;;;3.80;3.60;;;;;;;21.20;100.00;99082.44;5126597;27;20194;-71
2022/07/09 00:31:49;;;;;;;4.23;4.03;;;;;;;21.19;100.00;99079.97;5126202;27;20201;-71
2022/07/09 00:34:16;;;;;;;3.70;3.50;;;;;;;21.24;100.00;99069.97;5115255;27;20211;-70
2022/07/09 00:36:43;;;;;;;3.83;3.63;;;;;;;21.24;100.00;99078.63;5121917;27;20194;-71
2022/07/09 00:39:10;;;;;;;4.10;3.90;;;;;;;21.23;100.00;99073.53;5112386;28;20287;-70
2022/07/09 00:41:37;;;;;;;4.07;3.90;;;;;;;21.26;100.00;99075.91;5112447;28;20198;-71
2022/07/09 00:44:04;;;;;;;3.80;3.47;;;;;;;21.21;100.00;99070.22;5117333;27;20209;-70
2022/07/09 00:46:31;;;;;;;3.70;3.60;;;;;;;21.15;100.00;99075.94;5118245;27;20224;-72
2022/07/09 00:49:03;;;;;;;4.20;3.90;;;;;;;21.10;100.00;99073.66;5130291;27;20204;-71
2022/07/09 00:51:31;;;;;;;4.13;3.93;;;;;;;21.08;100.00;99067.72;5132750;27;20212;-70
2022/07/09 00:53:59;;;;;;;4.57;4.27;;;;;;;21.10;100.00;99071.06;5132629;27;20273;-71
2022/07/09 00:56:29;;;;;;;4.03;3.83;;;;;;;21.15;100.00;99060.28;5132310;27;20277;-71
2022/07/09 00:58:57;;;;;;;4.10;3.90;;;;;;;21.18;100.00;99057.44;5115674;27;20220;-71
2022/07/09 01:01:23;;;;;;;4.33;4.13;;;;;;;21.09;100.00;99055.53;5120063;27;20201;-70
2022/07/09 01:03:50;;;;;;;4.17;3.97;;;;;;;21.07;100.00;99042.59;5121264;27;20200;-70
2022/07/09 01:06:18;;;;;;;4.20;4.00;;;;;;;21.15;100.00;99055.06;5114802;27;20198;-70
2022/07/09 01:08:45;;;;;;;4.43;4.07;;;;;;;21.13;100.00;99051.78;5131614;27;20201;-70
2022/07/09 01:11:12;;;;;;;3.87;3.77;;;;;;;21.14;100.00;99053.41;5120498;27;20232;-70
2022/07/09 01:13:39;;;;;;;4.77;4.47;;;;;;;21.16;100.00;99046.31;5128913;27;20224;-70
2022/07/09 01:16:12;;;;;;;4.40;4.17;;;;;;;21.19;100.00;99046.91;5110925;28;20209;-71
2022/07/09 01:18:39;;;;;;;4.10;3.90;;;;;;;21.26;100.00;99057.66;5119000;27;20201;-70
2022/07/09 01:21:07;;;;;;;4.40;4.00;;;;;;;21.22;100.00;99051.03;5132366;27;20204;-70
2022/07/09 01:23:34;;;;;;;3.83;3.63;;;;;;;21.31;100.00;99064.16;5131455;27;20577;-70
2022/07/09 01:26:01;;;;;;;3.50;3.40;;;;;;;21.31;100.00;99060.72;5124866;27;20204;-70
2022/07/09 01:28:28;;;;;;;4.30;4.10;;;;;;;21.29;100.00;99057.44;5114033;27;20215;-70
2022/07/09 01:30:55;;;;;;;4.60;4.40;;;;;;;21.21;100.00;99060.63;5109867;28;20206;-70
2022/07/09 01:33:22;;;;;;;4.00;3.80;;;;;;;21.13;100.00;99063.00;5128536;27;20240;-70
2022/07/09 01:35:49;;;;;;;6.67;4.10;;;;;;;21.05;100.00;99065.34;5126708;27;20206;-70
2022/07/09 01:38:17;;;;;;;4.53;4.23;;;;;;;21.07;100.00;99062.63;5112806;27;20225;-70
2022/07/09 01:40:44;;;;;;;4.30;4.10;;;;;;;21.07;100.00;99060.00;5126365;27;20681;-70
2022/07/09 01:43:10;;;;;;;4.10;3.90;;;;;;;21.08;100.00;99064.28;5124824;27;20253;-70
2022/07/09 01:45:37;;;;;;;3.90;3.70;;;;;;;21.10;100.00;99073.66;5119984;27;20200;-71
2022/07/09 01:48:05;;;;;;;4.37;4.17;;;;;;;21.08;100.00;99072.09;5120581;27;20233;-71
2022/07/09 01:50:32;;;;;;;4.60;4.20;;;;;;;21.07;100.00;99067.81;5131848;27;20194;-70
2022/07/09 01:52:58;;;;;;;4.40;4.20;;;;;;;21.12;100.00;99078.78;5126237;27;20196;-70
2022/07/09 01:55:27;;;;;;;4.60;4.30;;;;;;;21.06;100.00;99076.63;5124550;27;20231;-70
2022/07/09 01:57:53;;;;;;;6.37;4.73;;;;;;;20.98;100.00;99052.91;5122142;28;20208;-70
2022/07/09 02:00:20;;;;;;;5.13;4.57;;;;;;;21.12;100.00;99070.94;5120820;28;20197;-70
2022/07/09 02:02:47;;;;;;;4.33;4.13;;;;;;;21.13;100.00;99068.22;5121371;28;20190;-70
2022/07/09 02:05:14;;;;;;;5.27;4.10;;;;;;;21.14;100.00;99066.44;5131705;28;20202;-70
2022/07/09 02:07:41;;;;;;;5.23;4.73;;;;;;;21.01;100.00;99057.88;5128691;27;20202;-70
2022/07/09 02:10:09;;;;;;;4.60;4.40;;;;;;;21.02;100.00;99060.38;5127655;27;20621;-70
2022/07/09 02:12:37;;;;;;;5.33;4.93;;;;;;;21.12;100.00;99060.53;5125494;28;20212;-70
2022/07/09 02:15:05;;;;;;;4.43;4.23;;;;;;;21.17;100.00;99063.59;5131251;28;20216;-70
2022/07/09 02:17:32;;;;;;;4.27;4.07;;;;;;;21.12;100.00;99048.31;5130028;28;20241;-70
2022/07/09 02:19:59;;;;;;;4.70;4.37;;;;;;;21.31;100.00;99060.72;5130653;28;20186;-70
2022/07/09 02:22:26;;;;;;;4.40;4.20;;;;;;;21.38;100.00;99061.91;5131266;28;20674;-70
2022/07/09 02:24:52;;;;;;;4.37;4.17;;;;;;;21.42;100.00;99063.31;5131500;27;20193;-70
2022/07/09 02:27:19;;;;;;;5.00;4.80;;;;;;;21.40;100.00;99060.00;5123028;27;20193;-70
2022/07/09 02:29:48;;;;;;;4.77;4.57;;;;;;;21.30;100.00;99048.63;5117130;27;20196;-70
2022/07/09 02:32:14;;;;;;;4.40;4.20;;;;;;;21.38;100.00;99067.13;5119979;27;20233;-70
2022/07/09 02:34:41;;;;;;;4.33;4.03;;;;;;;21.29;100.00;99053.00;5122502;27;20210;-70
2022/07/09 02:37:08;;;;;;;5.20;4.90;;;;;;;21.30;100.00;99069.50;5119433;27;20193;-70
2022/07/09 02:39:35;;;;;;;5.00;4.70;;;;;;;21.23;100.00;99068.31;5135238;27;20259;-70
2022/07/09 02:42:02;;;;;;;5.00;4.70;;;;;;;21.21;100.00;99065.84;5134875;27;20589;-70
2022/07/09 02:44:29;;;;;;;4.37;4.17;;;;;;;21.12;100.00;99065.75;5129031;27;20189;-70
2022/07/09 02:46:57;;;;;;;4.73;4.53;;;;;;;21.05;100.00;99069.72;5119924;27;20234;-70
2022/07/09 02:49:24;;;;;;;5.03;4.73;;;;;;;20.98;100.00;99069.38;5126588;27;20197;-70
2022/07/09 02:51:52;;;;;;;5.63;4.53;;;;;;;20.91;100.00;99076.00;5134606;27;20200;-70
2022/07/09 02:54:19;;;;;;;4.63;4.23;;;;;;;20.79;100.00;99070.00;5125980;27;20228;-70
2022/07/09 02:56:45;;;;;;;4.50;4.30;;;;;;;20.69;100.00;99063.81;5121411;27;20194;-70
2022/07/09 02:59:12;;;;;;;4.87;4.57;;;;;;;20.65;100.00;99070.22;5124720;27;20197;-70
2022/07/09 03:01:39;;;;;;;4.43;4.23;;;;;;;20.62;100.00;99060.03;5120053;27;20196;-70
2022/07/09 03:04:07;;;;;;;4.93;4.73;;;;;;;20.59;100.00;99059.44;5129546;27;20292;-70
2022/07/09 03:06:34;;;;;;;4.83;4.53;;;;;;;20.58;100.00;99056.00;5125865;27;20674;-70
2022/07/09 03:09:01;;;;;;;4.50;4.20;;;;;;;20.57;100.00;99051.75;5132370;27;20197;-70
2022/07/09 03:11:28;;;;;;;4.20;4.00;;;;;;;20.56;100.00;99057.91;5125913;27;20198;-70
2022/07/09 03:13:55;;;;;;;3.97;3.77;;;;;;;20.58;100.00;99045.56;5121616;27;20202;-70
2022/07/09 03:16:22;;;;;;;5.10;4.73;;;;;;;20.57;100.00;99051.75;5121087;27;20211;-70
2022/07/09 03:18:48;;;;;;;3.70;3.60;;;;;;;20.60;100.00;99038.50;5117409;27;20547;-70
2022/07/09 03:21:17;;;;;;;4.83;4.53;;;;;;;20.63;100.00;99050.44;5119799;27;20200;-70
2022/07/09 03:23:43;;;;;;;4.90;4.50;;;;;;;20.67;100.00;99047.50;5122928;27;20278;-70
2022/07/09 03:26:11;;;;;;;4.17;3.97;;;;;;;20.70;100.00;99039.44;5124402;27;20663;-70
2022/07/09 03:28:38;;;;;;;4.13;3.93;;;;;;;20.72;100.00;99037.53;5122943;27;20247;-70
2022/07/09 03:31:05;;;;;;;4.20;3.90;;;;;;;20.87;100.00;99053.78;5134216;27;20664;-70
2022/07/09 03:33:32;;;;;;;4.80;4.40;;;;;;;20.93;100.00;99048.09;5119563;27;20272;-70
2022/07/09 03:35:58;;;;;;;4.47;4.27;;;;;;;20.95;100.00;99046.16;5131582;27;20255;-70
2022/07/09 03:38:27;;;;;;;4.47;4.27;;;;;;;21.00;100.00;99045.81;5113735;27;20237;-70
2022/07/09 03:40:53;;;;;;;4.20;4.00;;;;;;;21.04;100.00;99045.44;5122867;27;20198;-70
2022/07/09 03:43:20;;;;;;;4.27;4.07;;;;;;;21.15;100.00;99050.69;5121028;27;20232;-70
2022/07/09 03:45:48;;;;;;;4.50;4.20;;;;;;;21.29;100.00;99057.44;5112330;28;20205;-70
2022/07/09 03:48:15;;;;;;;4.73;4.13;;;;;;;21.46;100.00;99065.53;5122576;27;20665;-71
2022/07/09 03:50:42;;;;;;;6.20;4.30;;;;;;;21.63;100.00;99056.38;5130244;27;20213;-70
2022/07/09 03:53:09;;;;;;;5.53;5.13;;;;;;;21.81;100.00;99052.25;5131918;27;20322;-70
2022/07/09 03:55:37;;;;;;;5.20;4.90;;;;;;;21.90;100.00;99058.56;5125121;27;20275;-70
2022/07/09 03:58:04;;;;;;;4.70;4.40;;;;;;;21.90;100.00;99059.38;5123769;27;20208;-70
2022/07/09 04:00:31;;;;;;;5.10;4.80;;;;;;;21.96;100.00;99053.66;5131764;27;20194;-70
2022/07/09 04:02:58;;;;;;;4.60;4.40;;;;;;;21.97;100.00;99050.06;5130932;27;20205;-70
2022/07/09 04:05:25;;;;;;;4.80;4.50;;;;;;;22.06;100.00;99068.56;5128212;27;20201;-70
2022/07/09 04:07:52;;;;;;;3.90;3.70;;;;;;;22.09;100.00;99068.31;5127013;27;20211;-70
2022/07/09 04:10:19;;;;;;;4.33;4.13;;;;;;;22.02;100.00;99067.97;5131448;27;20624;-70
2022/07/09 04:12:47;;;;;;;4.60;4.40;;;;;;;22.04;100.00;99076.50;5131817;27;20209;-70
2022/07/09 04:15:14;;;;;;;3.97;3.77;;;;;;;22.09;100.00;99070.91;5133335;27;20221;-70
2022/07/09 04:17:41;;;;;;;4.37;4.07;;;;;;;22.19;100.00;99084.88;5132937;27;20197;-70
2022/07/09 04:20:09;;;;;;;4.27;4.07;;;;;;;22.22;100.00;99079.41;5133025;27;20202;-70
2022/07/09 04:22:35;;;;;;;4.67;4.47;;;;;;;22.14;100.00;99077.41;5131806;27;20198;-69
2022/07/09 04:25:02;;;;;;;4.47;4.17;;;;;;;22.02;100.00;99067.16;5132265;27;20202;-69
2022/07/09 04:27:29;;;;;;;4.17;3.90;;;;;;;22.00;100.00;99071.69;5132870;27;20198;-69
2022/07/09 04:29:57;;;;;;;3.67;3.57;;;;;;;21.99;100.00;99068.25;5130228;27;20550;-70
2022/07/09 04:32:24;;;;;;;4.00;3.87;;;;;;;21.88;100.00;99070.84;5128779;27;20761;-69
2022/07/09 04:34:51;;;;;;;4.53;4.33;;;;;;;21.91;100.00;99076.69;5132570;27;20217;-69
2022/07/09 04:37:18;;;;;;;4.23;4.03;;;;;;;21.94;100.00;99073.81;5133006;27;20251;-69
2022/07/09 04:39:45;;;;;;;4.63;4.43;;;;;;;21.91;100.00;99071.47;5131798;27;20585;-69
2022/07/09 04:42:12;;;;;;;4.23;4.03;;;;;;;21.94;100.00;99073.81;5133007;27;20212;-69
2022/07/09 04:44:39;;;;;;;4.30;4.10;;;;;;;21.97;100.00;99065.75;5131346;27;20205;-70
2022/07/09 04:47:07;;;;;;;4.27;3.97;;;;;;;21.90;100.00;99075.06;5126139;27;20225;-70
2022/07/09 04:49:34;;;;;;;4.20;4.00;;;;;;;21.83;100.00;99068.63;5124412;27;20202;-70
2022/07/09 04:52:01;;;;;;;3.97;3.77;;;;;;;21.81;100.00;99067.91;5132681;27;20539;-69
2022/07/09 04:54:28;;;;;;;3.83;3.73;;;;;;;21.79;100.00;99075.06;5130560;27;20209;-69
2022/07/09 04:56:55;;;;;;;3.53;3.33;;;;;;;21.76;100.00;99072.69;5129460;27;20220;-69
2022/07/09 04:59:21;;;;;;;4.10;3.93;;;;;;;21.78;100.00;99076.00;5121605;27;20583;-69
2022/07/09 05:01:49;;;;;;;5.07;3.97;;;;;;;21.80;100.00;99068.88;5121153;27;20213;-69
2022/07/09 05:04:18;;;;;;;4.37;4.07;;;;;;;21.86;100.00;99068.38;5125431;27;20198;-69
2022/07/09 05:06:45;;;;;;;3.77;3.57;;;;;;;21.88;100.00;99061.25;5122797;27;20209;-69
2022/07/09 05:09:11;;;;;;;4.00;3.80;;;;;;;21.99;100.00;99073.47;5123851;27;20210;-69
2022/07/09 05:11:38;;;;;;;3.00;2.90;;;;;;;22.11;100.00;99072.44;5127048;27;20205;-69
2022/07/09 05:14:05;;;;;;;4.13;3.93;;;;;;;22.12;100.00;99075.88;5129347;27;20674;-68
2022/07/09 05:16:32;;;;;;;3.83;3.63;;;;;;;22.13;100.00;99074.94;5117995;27;20221;-68
2022/07/09 05:18:59;;;;;;;4.70;4.47;;;;;;;22.02;100.00;99061.94;5126208;27;20627;-68
2022/07/09 05:21:27;;;;;;;4.37;4.07;;;;;;;22.04;100.00;99060.00;5121853;27;20221;-69
2022/07/09 05:23:54;;;;;;;4.00;3.77;;;;;;;22.16;100.00;99085.13;5129498;27;20206;-69
2022/07/09 05:26:21;;;;;;;4.20;4.00;;;;;;;22.10;100.00;99076.00;5121021;27;20200;-68
2022/07/09 05:28:48;;;;;;;4.37;4.00;;;;;;;22.13;100.00;99085.38;5131147;27;20224;-68
2022/07/09 05:31:14;;;;;;;4.57;4.17;;;;;;;22.13;100.00;99069.72;5126231;27;20695;-69
2022/07/09 05:33:41;;;;;;;3.73;3.53;;;;;;;22.24;100.00;99082.69;5126601;27;20551;-69
2022/07/09 05:36:08;;;;;;;3.70;3.50;;;;;;;22.25;100.00;99079.97;5131188;27;20218;-69
2022/07/09 05:38:36;;;;;;;3.80;3.70;;;;;;;22.26;100.00;99081.59;5130893;27;20695;-69
2022/07/09 05:41:03;;;;;;;3.43;3.33;;;;;;;22.28;100.00;99082.31;5131082;27;20209;-68
2022/07/09 05:43:30;;;;;;;4.00;3.80;;;;;;;22.27;100.00;99080.66;5131001;27;20198;-68
2022/07/09 05:45:57;;;;;;;4.13;3.93;;;;;;;22.26;100.00;99079.00;5129681;27;20205;-68
2022/07/09 05:48:24;;;;;;;3.37;3.27;;;;;;;22.26;100.00;99075.59;5124329;27;20209;-68
2022/07/09 05:50:51;;;;;;;3.20;3.10;;;;;;;22.28;100.00;99078.88;5127260;27;20202;-68
2022/07/09 05:53:17;;;;;;;4.70;4.50;;;;;;;22.34;100.00;99078.38;5122030;27;20209;-69
2022/07/09 05:55:46;;;;;;;4.03;3.73;;;;;;;22.40;100.00;99070.00;5118305;27;20239;-68
2022/07/09 05:58:13;;;;;;;3.07;2.97;;;;;;;22.48;100.00;99072.81;5123470;27;20201;-68
2022/07/09 06:00:40;;;;;;;3.00;2.80;;;;;;;22.51;100.00;99072.56;5125315;27;20216;-69
2022/07/09 06:03:06;;;;;;;3.53;3.37;;;;;;;22.56;100.00;99067.78;5122147;27;20198;-68
2022/07/09 06:05:34;;;;;;;3.30;3.20;;;;;;;22.63;100.00;99074.13;5123142;28;20232;-68
2022/07/09 06:08:00;;;;;;;3.43;3.33;;;;;;;22.64;100.00;99067.13;5123882;28;20201;-68
2022/07/09 06:10:27;;;;;;;3.47;3.23;;;;;;;22.63;100.00;99071.53;5130080;28;20288;-69
2022/07/09 06:12:56;;;;;;;3.20;3.10;;;;;;;22.62;100.00;99067.25;5128105;27;20209;-69
2022/07/09 06:15:22;;;;;;;3.67;3.37;;;;;;;22.71;100.00;99074.34;5120640;28;20214;-68
2022/07/09 06:17:52;;;;;;;7.03;3.77;;;;;;;22.79;100.00;99074.53;5129999;28;20578;-69
2022/07/09 06:20:19;;;;;;;3.77;3.17;;;;;;;22.81;100.00;99077.81;5130953;27;20554;-69
2022/07/09 06:22:47;;;;;;;3.13;3.03;;;;;;;22.80;100.00;99076.19;5130959;27;20205;-69
2022/07/09 06:25:14;;;;;;;5.20;2.47;;;;;;;22.85;100.00;99074.00;5126790;27;20197;-65
2022/07/09 06:27:41;;;;;;;3.20;3.10;;;;;;;22.85;100.00;99073.16;5128219;28;20200;-68
2022/07/09 06:30:10;;;;;;;4.97;3.27;;;;;;;22.81;100.00;99066.56;5130370;27;20198;-68
2022/07/09 06:32:36;;;;;;;2.83;2.67;;;;;;;22.80;100.00;99063.13;5126191;28;20281;-68
2022/07/09 06:35:04;;;;;;;3.50;3.20;;;;;;;22.82;100.00;99062.97;5124316;28;20202;-70
2022/07/09 06:37:31;;;;;;;3.33;3.23;;;;;;;22.80;100.00;99060.50;5117463;28;20255;-67
2022/07/09 06:39:59;;;;;;;3.60;3.40;;;;;;;22.81;100.00;99056.91;5129997;27;20205;-67
2022/07/09 06:42:26;;;;;;;3.70;3.60;;;;;;;22.81;100.00;99056.09;5125576;28;20636;-67
2022/07/09 06:44:53;;;;;;;3.50;3.30;;;;;;;22.83;100.00;99049.78;5127364;28;20198;-67
2022/07/09 06:47:21;;;;;;;3.43;3.33;;;;;;;22.88;100.00;99051.97;5125126;27;20237;-69
2022/07/09 06:49:48;;;;;;;3.07;2.97;;;;;;;22.89;100.00;99045.81;5126527;28;20221;-68
2022/07/09 06:52:15;;;;;;;3.70;3.43;;;;;;;22.90;100.00;99048.31;5127293;28;20580;-67
2022/07/09 06:54:42;;;;;;;3.30;3.20;;;;;;;22.92;100.00;99046.38;5126613;27;20255;-67
2022/07/09 06:57:10;;;;;;;3.27;2.97;;;;;;;22.99;100.00;99044.88;5121652;28;20720;-72
2022/07/09 06:59:37;;;;;;;3.80;3.50;;;;;;;23.07;100.00;99046.00;5120967;27;20224;-68
2022/07/09 07:02:04;;;;;;;3.07;2.97;;;;;;;23.11;100.00;99044.75;5126261;27;20209;-67
2022/07/09 07:04:32;;;;;;;3.43;3.33;;;;;;;23.17;100.00;99046.84;5125073;28;20194;-67
2022/07/09 07:06:59;;;;;;;3.20;3.00;;;;;;;23.19;100.00;99043.16;5125662;28;20213;-67
2022/07/09 07:09:26;;;;;;;3.40;3.10;;;;;;;23.24;100.00;99040.13;5121799;28;20236;-67
2022/07/09 07:11:52;;;;;;;2.80;2.70;;;;;;;23.29;100.00;99036.16;5125862;27;20662;-67
2022/07/09 07:14:19;;;;;;;3.13;3.00;;;;;;;23.35;100.00;99029.56;5131005;27;20213;-67
2022/07/09 07:16:46;;;;;;;3.10;3.00;;;;;;;23.40;100.00;99024.75;5131609;27;20222;-67
2022/07/09 07:19:13;;;;;;;3.60;3.33;;;;;;;23.46;100.00;99034.66;5122795;27;20209;-67
2022/07/09 07:21:41;;;;;;;3.03;2.93;;;;;;;23.50;100.00;99033.44;5131525;27;20581;-67
2022/07/09 07:24:08;;;;;;;3.40;3.27;;;;;;;23.59;100.00;99031.81;5129479;27;20213;-68
2022/07/09 07:26:36;;;;;;;3.63;3.20;;;;;;;23.64;100.00;99034.84;5122916;27;20203;-67
2022/07/09 07:29:03;;;;;;;3.63;3.43;;;;;;;23.70;99.62;99035.13;5128695;27;20198;-68
2022/07/09 07:31:30;;;;;;;3.27;3.00;;;;;;;23.82;98.21;99036.63;5125802;27;20646;-72
2022/07/09 07:33:59;;;;;;;4.60;2.87;;;;;;;24.03;99.03;99041.72;5128719;27;20202;-68
2022/07/09 07:36:26;;;;;;;3.40;3.10;;;;;;;24.22;98.85;99040.88;5132029;27;20225;-67
2022/07/09 07:38:55;;;;;;;3.10;3.00;;;;;;;24.37;97.61;99044.69;5131567;27;20206;-68
2022/07/09 07:41:21;;;;;;;2.77;2.57;;;;;;;24.55;95.13;99048.25;5128852;27;20230;-67
2022/07/09 07:43:49;;;;;;;3.00;2.90;;;;;;;24.79;95.91;99047.72;5131967;27;20205;-67
2022/07/09 07:46:16;;;;;;;2.70;2.60;;;;;;;25.12;93.02;99047.19;5131969;27;20631;-67
2022/07/09 07:48:42;;;;;;;2.20;2.10;;;;;;;25.26;89.24;99048.50;5131611;27;20573;-67
2022/07/09 07:51:10;;;;;;;2.70;2.60;;;;;;;25.32;87.81;99048.75;5121282;27;20202;-67
2022/07/09 07:53:38;;;;;;;3.67;2.83;;;;;;;25.38;87.97;99052.56;5116761;27;20203;-70
2022/07/09 07:56:07;;;;;;;2.90;2.80;;;;;;;25.43;88.72;99050.31;5128729;27;20225;-67
2022/07/09 07:58:35;;;;;;;9.47;3.33;;;;;;;25.40;88.44;99040.94;5129651;27;20225;-68
2022/07/09 08:01:02;;;;;;;3.73;3.63;;;;;;;25.37;89.01;99040.41;5130684;27;20198;-67
2022/07/09 08:03:29;;;;;;;2.83;2.63;;;;;;;25.57;87.43;99055.09;5125098;27;20202;-68
2022/07/09 08:05:55;;;;;;;4.33;2.53;;;;;;;25.63;84.40;99046.59;5131227;27;20301;-68
2022/07/09 08:08:22;;;;;;;2.90;2.80;;;;;;;25.73;85.06;99042.13;5123819;27;20705;-68
2022/07/09 08:10:49;;;;;;;2.43;2.33;;;;;;;25.92;83.34;99047.19;5126927;27;20325;-68
2022/07/09 08:13:18;;;;;;;2.70;2.60;;;;;;;26.00;83.05;99039.41;5128285;27;20214;-68
2022/07/09 08:15:45;;;;;;;2.83;2.63;;;;;;;26.14;82.00;99039.81;5123351;27;21466;-67
2022/07/09 08:18:13;;;;;;;2.97;2.40;;;;;;;26.33;80.32;99034.41;5125362;27;20210;-67
2022/07/09 08:20:41;;;;;;;2.30;2.20;;;;;;;26.39;78.68;99044.28;5130702;27;20198;-68
2022/07/09 08:23:09;;;;;;;2.20;2.10;;;;;;;26.36;80.30;99036.72;5127716;27;20195;-68
2022/07/09 08:25:36;;;;;;;2.33;2.27;;;;;;;26.32;79.17;99032.75;5126402;27;20207;-68
2022/07/09 08:28:03;;;;;;;2.57;2.47;;;;;;;26.26;77.84;99034.19;5131211;27;20202;-68
2022/07/09 08:30:31;;;;;;;2.40;2.30;;;;;;;26.24;80.46;99035.31;5129531;27;20202;-68
2022/07/09 08:32:58;;;;;;;3.47;3.03;;;;;;;26.23;78.86;99036.31;5124122;27;20206;-69
2022/07/09 08:35:26;;;;;;;3.53;2.70;;;;;;;26.23;80.07;99028.41;5119187;27;20198;-68
2022/07/09 08:37:53;;;;;;;2.50;2.40;;;;;;;26.15;80.50;99041.47;5129712;27;20214;-68
2022/07/09 08:40:21;;;;;;;2.80;2.60;;;;;;;26.14;80.72;99035.38;5122726;27;20202;-67
2022/07/09 08:42:48;;;;;;;3.40;3.10;;;;;;;26.07;80.59;99039.63;5129050;27;20713;-68
2022/07/09 08:45:18;;;;;;;2.60;2.50;;;;;;;26.11;80.53;99035.69;5124203;27;20214;-68
2022/07/09 08:47:46;;;;;;;2.70;2.50;;;;;;;26.14;81.09;99040.63;5129834;27;20229;-68
2022/07/09 08:50:14;;;;;;;2.90;2.80;;;;;;;26.17;81.05;99029.03;5126093;27;20201;-68
2022/07/09 08:52:42;;;;;;;2.60;2.50;;;;;;;26.14;77.92;99039.81;5126442;27;20198;-69
2022/07/09 08:55:10;;;;;;;2.27;2.17;;;;;;;26.02;77.62;99034.81;5126023;27;20210;-68
2022/07/09 08:57:37;;;;;;;2.93;2.83;;;;;;;26.00;77.99;99023.63;5127982;27;20686;-68
2022/07/09 09:00:05;;;;;;;2.73;2.63;;;;;;;26.08;78.12;99034.19;5124191;27;20209;-68
2022/07/09 09:02:36;;;;;;;2.80;2.60;;;;;;;26.10;78.17;99028.78;5121074;27;20256;-67
2022/07/09 09:05:10;;;;;;;2.60;2.50;;;;;;;26.10;75.91;99031.44;5127180;27;20249;-67
2022/07/09 09:07:36;;;;;;;2.60;2.50;;;;;;;26.06;76.76;99032.69;5128681;27;20202;-67
2022/07/09 09:10:04;;;;;;;2.60;2.40;;;;;;;26.00;74.79;99039.41;5127756;27;20205;-67
2022/07/09 09:12:31;;;;;;;2.23;2.20;;;;;;;26.05;74.04;99028.41;5130124;27;20204;-67
2022/07/09 09:14:58;;;;;;;7.80;2.40;;;;;;;26.09;74.66;99040.28;5120779;27;20205;-67
2022/07/09 09:17:25;;;;;;;2.60;2.50;;;;;;;26.08;75.96;99028.94;5122309;27;20694;-68
2022/07/09 09:19:51;;;;;;;2.60;2.50;;;;;;;26.09;75.06;99038.47;5117937;27;20301;-67
2022/07/09 09:22:20;;;;;;;3.07;2.93;;;;;;;26.14;76.88;99030.13;5114787;27;20206;-68
2022/07/09 09:24:53;;;;;;;3.10;2.90;;;;;;;26.16;79.08;99038.72;5121487;27;20213;-67
2022/07/09 09:27:28;;;;;;;3.13;2.93;;;;;;;26.17;79.73;99034.28;5126126;27;20194;-67
2022/07/09 09:29:59;;;;;;;2.77;2.67;;;;;;;26.18;76.89;99033.28;5114664;27;20270;-67
2022/07/09 09:32:26;;;;;;;2.50;2.40;;;;;;;26.17;76.89;99039.56;5125159;27;20323;-68
2022/07/09 09:34:53;;;;;;;2.40;2.30;;;;;;;26.10;73.30;99045.38;5127687;27;20580;-67
2022/07/09 09:37:29;;;;;;;2.53;2.43;;;;;;;26.04;74.49;99035.47;5129036;27;20245;-67
2022/07/09 09:39:56;;;;;;;2.23;2.13;;;;;;;25.96;75.31;99038.03;5128665;27;20201;-67
2022/07/09 09:42:25;;;;;;;2.37;2.27;;;;;;;25.91;74.01;99029.78;5124886;27;20201;-67
2022/07/09 09:44:52;;;;;;;2.30;2.20;;;;;;;25.83;72.55;99037.59;5128809;27;20209;-67
2022/07/09 09:47:23;;;;;;;2.33;2.23;;;;;;;25.90;75.33;99033.41;5127201;27;20214;-67
2022/07/09 09:49:51;;;;;;;2.60;2.50;;;;;;;25.76;77.25;99012.94;5118386;27;20287;-68
2022/07/09 09:52:20;;;;;;;3.10;3.00;;;;;;;25.93;76.22;99032.25;5122042;27;20635;-68
2022/07/09 09:54:50;;;;;;;2.50;2.40;;;;;;;25.88;73.97;99032.72;5125247;27;20201;-67
2022/07/09 09:57:17;;;;;;;2.53;2.43;;;;;;;25.88;74.64;99034.53;5125602;27;20229;-68
2022/07/09 09:59:45;;;;;;;3.00;2.80;;;;;;;25.81;74.73;99029.06;5128302;27;20259;-67
2022/07/09 10:02:13;;;;;;;2.23;2.17;;;;;;;25.84;75.41;99033.19;5120705;27;20237;-67
2022/07/09 10:04:41;;;;;;;3.00;2.90;;;;;;;25.82;77.23;99035.94;5125002;28;20204;-68
2022/07/09 10:07:09;;;;;;;3.00;2.90;;;;;;;25.69;83.26;99030.25;5127512;28;20539;-67
2022/07/09 10:09:36;;;;;;;3.30;3.00;;;;;;;25.62;83.33;99021.34;5130584;28;20205;-67
2022/07/09 10:12:06;;;;;;;3.10;3.00;;;;;;;25.67;84.67;99021.72;5122824;28;20197;-68
2022/07/09 10:14:34;;;;;;;3.63;3.53;;;;;;;25.65;83.65;99028.94;5120088;28;20205;-68
2022/07/09 10:17:13;;;;;;;2.77;2.67;;;;;;;25.70;83.60;99026.66;5124988;28;20217;-67
2022/07/09 10:19:51;;;;;;;3.20;3.00;;;;;;;25.76;82.81;99028.69;5129078;28;20197;-67
2022/07/09 10:22:18;;;;;;;3.40;3.20;;;;;;;25.83;81.18;99031.53;5127202;28;20197;-68
2022/07/09 10:24:46;;;;;;;3.27;3.17;;;;;;;25.77;82.56;99032.13;5129951;28;20198;-68
2022/07/09 10:27:14;;;;;;;3.60;3.40;;;;;;;25.72;84.02;99029.16;5128839;28;20198;-68
2022/07/09 10:29:54;;;;;;;3.13;2.93;;;;;;;25.62;83.50;99023.97;5123890;28;20786;-68
2022/07/09 10:32:25;;;;;;;3.73;3.53;;;;;;;25.54;84.46;99026.50;5121856;28;20657;-67
2022/07/09 10:35:00;;;;;;;3.40;3.13;;;;;;;25.52;84.07;99028.47;5126577;28;20202;-68
2022/07/09 10:37:35;;;;;;;3.03;2.83;;;;;;;25.55;85.00;99028.16;5127499;28;20581;-67
2022/07/09 10:40:10;;;;;;;3.40;3.10;;;;;;;25.57;86.18;99031.47;5125455;28;20558;-67
2022/07/09 10:42:38;;;;;;;3.30;3.20;;;;;;;25.59;84.85;99025.06;5128109;28;20205;-67
2022/07/09 10:45:20;;;;;;;3.30;3.10;;;;;;;25.71;85.49;99017.00;5126300;28;20241;-67
2022/07/09 10:47:52;;;;;;;3.50;3.40;;;;;;;25.75;85.00;99023.59;5126464;27;20629;-67
2022/07/09 10:50:19;;;;;;;3.43;3.23;;;;;;;25.74;85.05;99022.75;5127012;27;20677;-68
2022/07/09 10:52:47;;;;;;;3.70;3.50;;;;;;;25.81;84.72;99023.81;5133059;27;22302;-68
2022/07/09 10:55:17;;;;;;;2.87;2.77;;;;;;;25.81;85.50;99021.19;5132093;27;20212;-68
2022/07/09 10:57:45;;;;;;;3.00;2.90;;;;;;;25.88;86.45;99024.84;5128178;27;20225;-68
2022/07/09 11:00:16;;;;;;;3.57;3.27;;;;;;;25.98;84.93;99020.31;5133060;27;20233;-68
2022/07/09 11:02:56;;;;;;;3.10;3.00;;;;;;;26.09;84.97;99032.38;5120547;27;20711;-67
2022/07/09 11:05:24;;;;;;;3.50;3.40;;;;;;;26.09;82.57;99021.88;5123987;27;20208;-68
2022/07/09 11:08:02;;;;;;;3.77;3.57;;;;;;;26.06;83.27;99016.94;5123702;27;20194;-68
2022/07/09 11:10:30;;;;;;;3.87;3.53;;;;;;;26.04;83.54;99018.91;5124750;27;20229;-68
2022/07/09 11:13:00;;;;;;;3.73;3.43;;;;;;;26.01;84.33;99014.75;5123346;27;20209;-69
2022/07/09 11:15:28;;;;;;;3.43;3.33;;;;;;;26.10;84.11;99018.28;5121158;27;20195;-68
2022/07/09 11:17:56;;;;;;;4.17;3.97;;;;;;;26.09;83.76;99012.19;5131527;27;20214;-68
2022/07/09 11:20:23;;;;;;;4.23;3.60;;;;;;;26.07;81.73;99010.72;5127370;27;20597;-68
2022/07/09 11:22:50;;;;;;;4.10;3.90;;;;;;;26.13;79.63;99011.88;5127723;27;20205;-68
2022/07/09 11:25:17;;;;;;;4.10;3.80;;;;;;;26.22;81.04;99011.00;5120488;27;20205;-68
2022/07/09 11:27:45;;;;;;;3.63;3.43;;;;;;;26.22;82.08;99005.75;5127436;27;20209;-68
2022/07/09 11:30:16;;;;;;;3.33;3.13;;;;;;;26.29;79.66;99012.03;5129667;27;20589;-68
2022/07/09 11:32:43;;;;;;;4.23;4.03;;;;;;;26.32;79.30;99011.72;5123736;27;20213;-68